Terminal Aerodrome Forecast
Issued by NWS

Home | Current Version | Previous Version | Text Only | Print | Product List | Glossary On
Versions: 1 2 3 4 5 6 7 8 9 10 11 12 13 14 15 16 17 18 19
000
FTUS43 KGRR 041400 AAA
TAFBTL
TAF AMD
KBTL 041434Z 0415/0512 33008G18KT P6SM BKN020 OVC030
     FM041900 30014G21KT P6SM BKN035
     FM050300 30006KT P6SM BKN035=

USA.gov is the U.S. government's official web portal to all federal, state and local government web resources and services.